METAR Data
IDs: Format: Raw Decoded Include TAF

Data at: 1856 UTC 23 Apr 2019

KDMN 231853Z AUTO 12009G18KT 10SM FEW060 22/04 A2998 RMK AO2 SLP098 T02170044
KDMN 231753Z AUTO 10013G18KT 10SM CLR 21/05 A3002 RMK AO2 SLP109 T02060050 10206 20100 58006
KDMN 231653Z AUTO 09010KT 10SM CLR 19/03 A3003 RMK AO2 SLP116 T01940033
KDMN 231553Z AUTO 07010G14KT 10SM CLR 18/04 A3004 RMK AO2 SLP117 T01780039
KDMN 231453Z AUTO 06011KT 10SM CLR 16/04 A3004 RMK AO2 SLP121 T01610044 50008
KDMN 231353Z AUTO 11005KT 10SM CLR 13/06 A3005 RMK AO2 SLP127 T01280061
KDMN 231253Z AUTO 06003KT 10SM CLR 10/06 A3004 RMK AO2 SLP126 T01000056
KDMN 231153Z AUTO 03006KT 10SM SCT100 11/06 A3002 RMK AO2 LTG DSNT E AND SW SLP112 60001 70001 T01060061 10150 20106 53006
KDMN 231053Z AUTO 15008KT 10SM FEW050 OVC095 11/07 A3000 RMK AO2 LTG DSNT E RAB28E41 SLP108 P0001 T01110067
KDMN 230953Z AUTO 09004KT 10SM BKN100 BKN110 12/05 A3000 RMK AO2 SLP107 T01170050
KDMN 230853Z AUTO 00000KT 10SM SCT100 12/05 A2999 RMK AO2 SLP098 60000 T01220050 56013
KDMN 230753Z AUTO 00000KT 10SM BKN100 12/04 A3001 RMK AO2 SLP102 T01220044
KDMN 230653Z AUTO 03005KT 10SM SCT100 13/05 A3002 RMK AO2 RAE09 SLP106 P0000 T01280050 402610122
KDMN 230553Z AUTO 29007KT 10SM -RA BKN070 OVC090 15/05 A3004 RMK AO2 RAB44 SLP112 P0000 60000 T01500050 10217 20144 51016
KDMN 230453Z AUTO 35011G19KT 10SM FEW100 15/04 A3002 RMK AO2 RAB0354E13 SLP107 P0000 T01500044
KDMN 230353Z AUTO 34015G21KT 10SM FEW070 BKN090 OVC110 16/06 A3001 RMK AO2 SLP105 T01610061
KDMN 230253Z AUTO 20004KT 10SM FEW075 SCT110 16/07 A2998 RMK AO2 LTG DSNT W AND NW RAE07B28E39 TSE0158 SLP100 P0000 60000 T01560072 53014
KDMN 230204Z AUTO 07011KT 10SM -RA BKN100 OVC110 16/07 A2996 RMK AO2 LTG DSNT SW AND W TSE0158 P0000 T01610067
KDMN 230153Z AUTO 09006G16KT 10SM -TSRA BKN100 OVC120 17/07 A2996 RMK AO2 LTG DSNT S-W RAB49 TSB31 SLP095 P0000 T01670072
KDMN 230137Z AUTO 10011KT 10SM TS BKN110 18/03 A2997 RMK AO2 LTG DSNT S-W TSB31 T01830033
KDMN 230053Z AUTO 08013KT 10SM CLR 19/03 A2993 RMK AO2 LTG DSNT S-NW SLP084 T01890028
KDMN 222353Z AUTO 08008KT 10SM CLR 22/01 A2994 RMK AO2 SLP081 T02170011 10261 20189 58004
KDMN 222253Z AUTO 34006KT 10SM CLR 21/01 A2995 RMK AO2 PK WND 29034/2154 SLP086 T02110011
KDMN 222153Z AUTO 28028G36KT 8SM FEW009 SCT100 BKN110 20/03 A2996 RMK AO2 PK WND 27045/2131 SLP088 T02000028
KDMN 222145Z AUTO 28024G38KT 3SM HZ FEW010 FEW090 BKN110 19/03 A2996 RMK AO2 PK WND 27045/2131 T01890033
KDMN 222133Z AUTO 28035G45KT 1 1/4SM HZ FEW008 SCT110 22/M01 A2995 RMK AO2 PK WND 27045/2131 T02171006
KDMN 222053Z AUTO 25008KT 10SM CLR 24/M04 A2995 RMK AO2 SLP076 T02391039 56017 $
KDMN 221953Z AUTO 17009G19KT 10SM CLR 25/M04 A2997 RMK AO2 SLP079 T02501044 $
KDMN 221853Z AUTO 10SM CLR 24/00 A2998 RMK AO2 SLP085 T02390000 $
KDMN 221753Z AUTO VRB04KT 10SM CLR 23/02 A3001 RMK AO2 SLP093 T02280017 10233 20122 58009
KDMN 221653Z AUTO 18005KT 10SM CLR 22/02 A3003 RMK AO2 SLP103 T02170022
KDMN 221553Z AUTO 00000KT 10SM CLR 19/M02 A3003 RMK AO2 SLP103 T01941017 $
KDMN 221453Z AUTO 30005KT 10SM CLR 17/M02 A3004 RMK AO2 SLP110 T01721022 51012 $
KDMN 221353Z AUTO 28004KT 10SM CLR 13/M01 A3003 RMK AO2 SLP108 T01331011 $
KDMN 221253Z AUTO 00000KT 10SM CLR 13/M03 A3001 RMK AO2 SLP100 T01281028 $
KDMN 221153Z AUTO 32005KT 10SM CLR 14/M02 A3000 RMK AO2 SLP092 T01391017 10200 20139 52002 $
KDMN 221053Z AUTO 30010KT 10SM CLR 14/M02 A2999 RMK AO2 SLP089 T01441017 $
KDMN 220953Z AUTO 28008KT 10SM CLR 15/M01 A3000 RMK AO2 SLP091 T01501011 $
KDMN 220853Z AUTO 26007KT 10SM CLR 18/M01 A2999 RMK AO2 SLP085 T01781011 58001 $
KDMN 220753Z AUTO 26011KT 10SM CLR 18/M01 A3000 RMK AO2 SLP088 T01831011 $